sensor_id;sensor_type;location;lat;lon;timestamp;P1;durP1;ratioP1;P2;durP2;ratioP2
71888;SDS011;59762;49.998;14.858;2024-03-08T00:01:55;22.20;;;8.95;;
71888;SDS011;59762;49.998;14.858;2024-03-08T00:04:20;15.23;;;7.85;;
71888;SDS011;59762;49.998;14.858;2024-03-08T00:06:46;14.52;;;8.20;;
71888;SDS011;59762;49.998;14.858;2024-03-08T00:09:13;16.52;;;9.18;;
71888;SDS011;59762;49.998;14.858;2024-03-08T00:11:39;25.63;;;10.00;;
71888;SDS011;59762;49.998;14.858;2024-03-08T00:14:04;17.73;;;8.40;;
71888;SDS011;59762;49.998;14.858;2024-03-08T00:16:32;19.67;;;10.00;;
71888;SDS011;59762;49.998;14.858;2024-03-08T00:18:58;26.73;;;10.55;;
71888;SDS011;59762;49.998;14.858;2024-03-08T00:21:23;20.05;;;9.43;;
71888;SDS011;59762;49.998;14.858;2024-03-08T00:23:49;14.65;;;8.00;;
71888;SDS011;59762;49.998;14.858;2024-03-08T00:26:15;22.40;;;10.85;;
71888;SDS011;59762;49.998;14.858;2024-03-08T00:28:40;30.45;;;9.07;;
71888;SDS011;59762;49.998;14.858;2024-03-08T00:31:06;23.02;;;10.88;;
71888;SDS011;59762;49.998;14.858;2024-03-08T00:33:32;21.60;;;10.77;;
71888;SDS011;59762;49.998;14.858;2024-03-08T00:35:57;23.83;;;10.48;;
71888;SDS011;59762;49.998;14.858;2024-03-08T00:38:23;20.77;;;10.90;;
71888;SDS011;59762;49.998;14.858;2024-03-08T00:40:49;16.73;;;8.85;;
71888;SDS011;59762;49.998;14.858;2024-03-08T00:43:14;18.70;;;10.10;;
71888;SDS011;59762;49.998;14.858;2024-03-08T00:45:41;18.98;;;8.73;;
71888;SDS011;59762;49.998;14.858;2024-03-08T00:48:08;20.20;;;10.07;;
71888;SDS011;59762;49.998;14.858;2024-03-08T00:50:33;18.05;;;10.80;;
71888;SDS011;59762;49.998;14.858;2024-03-08T00:52:59;28.75;;;9.32;;
71888;SDS011;59762;49.998;14.858;2024-03-08T00:55:25;21.05;;;8.38;;
71888;SDS011;59762;49.998;14.858;2024-03-08T00:57:51;15.63;;;7.75;;
71888;SDS011;59762;49.998;14.858;2024-03-08T01:00:16;27.25;;;10.38;;
71888;SDS011;59762;49.998;14.858;2024-03-08T01:02:42;24.98;;;11.32;;
71888;SDS011;59762;49.998;14.858;2024-03-08T01:05:08;13.05;;;8.52;;
71888;SDS011;59762;49.998;14.858;2024-03-08T01:07:34;20.20;;;10.52;;
71888;SDS011;59762;49.998;14.858;2024-03-08T01:10:03;13.45;;;8.23;;
71888;SDS011;59762;49.998;14.858;2024-03-08T01:12:29;20.67;;;9.25;;
71888;SDS011;59762;49.998;14.858;2024-03-08T01:14:55;12.93;;;9.32;;
71888;SDS011;59762;49.998;14.858;2024-03-08T01:17:21;16.30;;;7.40;;
71888;SDS011;59762;49.998;14.858;2024-03-08T01:19:47;26.75;;;7.40;;
71888;SDS011;59762;49.998;14.858;2024-03-08T01:22:12;22.40;;;9.07;;
71888;SDS011;59762;49.998;14.858;2024-03-08T01:24:38;18.67;;;8.88;;
71888;SDS011;59762;49.998;14.858;2024-03-08T01:27:03;11.75;;;8.18;;
71888;SDS011;59762;49.998;14.858;2024-03-08T01:29:29;17.92;;;10.23;;
71888;SDS011;59762;49.998;14.858;2024-03-08T01:31:55;19.52;;;8.95;;
71888;SDS011;59762;49.998;14.858;2024-03-08T01:34:21;23.45;;;7.50;;
71888;SDS011;59762;49.998;14.858;2024-03-08T01:36:48;19.45;;;9.07;;
71888;SDS011;59762;49.998;14.858;2024-03-08T01:39:14;17.42;;;10.15;;
71888;SDS011;59762;49.998;14.858;2024-03-08T01:41:39;17.58;;;8.95;;
71888;SDS011;59762;49.998;14.858;2024-03-08T01:44:05;20.23;;;9.52;;
71888;SDS011;59762;49.998;14.858;2024-03-08T01:46:32;20.92;;;8.93;;
71888;SDS011;59762;49.998;14.858;2024-03-08T01:48:58;26.42;;;9.15;;
71888;SDS011;59762;49.998;14.858;2024-03-08T01:51:26;20.15;;;9.23;;
71888;SDS011;59762;49.998;14.858;2024-03-08T01:53:51;16.23;;;9.05;;
71888;SDS011;59762;49.998;14.858;2024-03-08T01:56:17;21.30;;;9.60;;
71888;SDS011;59762;49.998;14.858;2024-03-08T01:58:43;20.90;;;11.93;;
71888;SDS011;59762;49.998;14.858;2024-03-08T02:01:10;16.25;;;9.43;;
71888;SDS011;59762;49.998;14.858;2024-03-08T02:03:36;22.55;;;10.93;;
71888;SDS011;59762;49.998;14.858;2024-03-08T02:06:01;16.67;;;9.07;;
71888;SDS011;59762;49.998;14.858;2024-03-08T02:08:27;31.25;;;12.98;;
71888;SDS011;59762;49.998;14.858;2024-03-08T02:10:52;24.15;;;8.50;;
71888;SDS011;59762;49.998;14.858;2024-03-08T02:13:18;16.70;;;9.35;;
71888;SDS011;59762;49.998;14.858;2024-03-08T02:15:57;22.35;;;8.73;;
71888;SDS011;59762;49.998;14.858;2024-03-08T02:18:24;19.23;;;9.43;;
71888;SDS011;59762;49.998;14.858;2024-03-08T02:20:57;26.08;;;11.57;;
71888;SDS011;59762;49.998;14.858;2024-03-08T02:23:23;19.02;;;9.98;;
71888;SDS011;59762;49.998;14.858;2024-03-08T02:25:50;19.80;;;10.25;;
71888;SDS011;59762;49.998;14.858;2024-03-08T02:28:16;25.48;;;9.43;;
71888;SDS011;59762;49.998;14.858;2024-03-08T02:30:44;22.98;;;9.35;;
71888;SDS011;59762;49.998;14.858;2024-03-08T02:33:09;18.15;;;9.65;;
71888;SDS011;59762;49.998;14.858;2024-03-08T02:35:35;24.48;;;11.15;;
71888;SDS011;59762;49.998;14.858;2024-03-08T02:38:02;14.70;;;9.02;;
71888;SDS011;59762;49.998;14.858;2024-03-08T02:40:29;22.02;;;11.50;;
71888;SDS011;59762;49.998;14.858;2024-03-08T02:42:54;17.38;;;9.35;;
71888;SDS011;59762;49.998;14.858;2024-03-08T02:45:20;18.58;;;8.48;;
71888;SDS011;59762;49.998;14.858;2024-03-08T02:47:46;26.60;;;11.68;;
71888;SDS011;59762;49.998;14.858;2024-03-08T02:50:11;25.35;;;13.10;;
71888;SDS011;59762;49.998;14.858;2024-03-08T02:52:37;17.75;;;9.60;;
71888;SDS011;59762;49.998;14.858;2024-03-08T02:55:02;28.67;;;11.02;;
71888;SDS011;59762;49.998;14.858;2024-03-08T02:57:28;17.55;;;9.55;;
71888;SDS011;59762;49.998;14.858;2024-03-08T02:59:53;21.25;;;10.30;;
71888;SDS011;59762;49.998;14.858;2024-03-08T03:02:19;24.23;;;13.63;;
71888;SDS011;59762;49.998;14.858;2024-03-08T03:04:45;24.67;;;10.13;;
71888;SDS011;59762;49.998;14.858;2024-03-08T03:07:10;12.45;;;9.45;;
71888;SDS011;59762;49.998;14.858;2024-03-08T03:09:36;15.35;;;10.93;;
71888;SDS011;59762;49.998;14.858;2024-03-08T03:12:02;11.93;;;7.05;;
71888;SDS011;59762;49.998;14.858;2024-03-08T03:14:27;21.35;;;10.25;;
71888;SDS011;59762;49.998;14.858;2024-03-08T03:16:53;12.00;;;7.28;;
71888;SDS011;59762;49.998;14.858;2024-03-08T03:19:19;17.27;;;7.78;;
71888;SDS011;59762;49.998;14.858;2024-03-08T03:21:46;25.83;;;10.63;;
71888;SDS011;59762;49.998;14.858;2024-03-08T03:24:12;16.80;;;9.23;;
71888;SDS011;59762;49.998;14.858;2024-03-08T03:26:38;18.45;;;8.15;;
71888;SDS011;59762;49.998;14.858;2024-03-08T03:29:07;15.07;;;9.70;;
71888;SDS011;59762;49.998;14.858;2024-03-08T03:31:34;21.98;;;9.23;;
71888;SDS011;59762;49.998;14.858;2024-03-08T03:34:00;18.70;;;7.20;;
71888;SDS011;59762;49.998;14.858;2024-03-08T03:36:28;13.45;;;8.73;;
71888;SDS011;59762;49.998;14.858;2024-03-08T03:38:54;20.88;;;8.40;;
71888;SDS011;59762;49.998;14.858;2024-03-08T03:41:31;17.95;;;9.43;;
71888;SDS011;59762;49.998;14.858;2024-03-08T03:43:56;14.52;;;7.75;;
71888;SDS011;59762;49.998;14.858;2024-03-08T03:46:22;18.20;;;9.07;;
71888;SDS011;59762;49.998;14.858;2024-03-08T03:48:47;19.08;;;8.50;;
71888;SDS011;59762;49.998;14.858;2024-03-08T03:51:13;24.75;;;7.55;;
71888;SDS011;59762;49.998;14.858;2024-03-08T03:53:40;28.13;;;11.15;;
71888;SDS011;59762;49.998;14.858;2024-03-08T03:56:07;17.17;;;10.02;;
71888;SDS011;59762;49.998;14.858;2024-03-08T03:58:32;15.68;;;8.75;;
71888;SDS011;59762;49.998;14.858;2024-03-08T04:00:58;17.05;;;8.63;;
71888;SDS011;59762;49.998;14.858;2024-03-08T04:03:23;20.42;;;10.10;;
71888;SDS011;59762;49.998;14.858;2024-03-08T04:05:49;19.27;;;10.50;;
71888;SDS011;59762;49.998;14.858;2024-03-08T04:08:16;25.67;;;10.50;;
71888;SDS011;59762;49.998;14.858;2024-03-08T04:10:42;18.25;;;9.65;;
71888;SDS011;59762;49.998;14.858;2024-03-08T04:13:07;21.48;;;11.98;;
71888;SDS011;59762;49.998;14.858;2024-03-08T04:15:35;22.92;;;10.93;;
71888;SDS011;59762;49.998;14.858;2024-03-08T04:18:00;23.15;;;12.15;;
71888;SDS011;59762;49.998;14.858;2024-03-08T04:20:26;29.02;;;14.15;;
71888;SDS011;59762;49.998;14.858;2024-03-08T04:22:51;35.58;;;13.20;;
71888;SDS011;59762;49.998;14.858;2024-03-08T04:25:17;21.52;;;10.10;;
71888;SDS011;59762;49.998;14.858;2024-03-08T04:27:42;28.10;;;10.05;;
71888;SDS011;59762;49.998;14.858;2024-03-08T04:30:08;34.03;;;14.20;;
71888;SDS011;59762;49.998;14.858;2024-03-08T04:32:34;22.27;;;12.85;;
71888;SDS011;59762;49.998;14.858;2024-03-08T04:34:59;30.92;;;12.85;;
71888;SDS011;59762;49.998;14.858;2024-03-08T04:37:27;14.88;;;8.77;;
71888;SDS011;59762;49.998;14.858;2024-03-08T04:39:55;23.25;;;12.13;;
71888;SDS011;59762;49.998;14.858;2024-03-08T04:42:20;26.77;;;12.23;;
71888;SDS011;59762;49.998;14.858;2024-03-08T04:44:46;21.92;;;11.93;;
71888;SDS011;59762;49.998;14.858;2024-03-08T04:47:11;20.05;;;12.48;;
71888;SDS011;59762;49.998;14.858;2024-03-08T04:49:37;20.63;;;10.48;;
71888;SDS011;59762;49.998;14.858;2024-03-08T04:52:03;18.08;;;9.98;;
71888;SDS011;59762;49.998;14.858;2024-03-08T04:54:29;22.80;;;12.77;;
71888;SDS011;59762;49.998;14.858;2024-03-08T04:56:54;13.48;;;8.65;;
71888;SDS011;59762;49.998;14.858;2024-03-08T04:59:20;31.58;;;13.00;;
71888;SDS011;59762;49.998;14.858;2024-03-08T05:01:46;26.90;;;11.60;;
71888;SDS011;59762;49.998;14.858;2024-03-08T05:04:13;13.40;;;8.18;;
71888;SDS011;59762;49.998;14.858;2024-03-08T05:06:38;22.55;;;10.02;;
71888;SDS011;59762;49.998;14.858;2024-03-08T05:09:04;23.80;;;9.77;;
71888;SDS011;59762;49.998;14.858;2024-03-08T05:11:41;30.88;;;13.27;;
71888;SDS011;59762;49.998;14.858;2024-03-08T05:14:08;23.60;;;13.00;;
71888;SDS011;59762;49.998;14.858;2024-03-08T05:16:33;19.33;;;10.13;;
71888;SDS011;59762;49.998;14.858;2024-03-08T05:18:59;17.48;;;11.18;;
71888;SDS011;59762;49.998;14.858;2024-03-08T05:21:25;25.52;;;11.77;;
71888;SDS011;59762;49.998;14.858;2024-03-08T05:23:50;25.35;;;9.45;;
71888;SDS011;59762;49.998;14.858;2024-03-08T05:26:16;27.48;;;11.90;;
71888;SDS011;59762;49.998;14.858;2024-03-08T05:28:41;20.95;;;10.00;;
71888;SDS011;59762;49.998;14.858;2024-03-08T05:31:07;18.58;;;10.93;;
71888;SDS011;59762;49.998;14.858;2024-03-08T05:33:33;29.67;;;10.82;;
71888;SDS011;59762;49.998;14.858;2024-03-08T05:36:00;27.35;;;11.10;;
71888;SDS011;59762;49.998;14.858;2024-03-08T05:38:26;29.83;;;12.75;;
71888;SDS011;59762;49.998;14.858;2024-03-08T05:40:51;31.75;;;13.05;;
71888;SDS011;59762;49.998;14.858;2024-03-08T05:43:17;26.30;;;11.65;;
71888;SDS011;59762;49.998;14.858;2024-03-08T05:45:44;22.88;;;10.25;;
71888;SDS011;59762;49.998;14.858;2024-03-08T05:48:10;18.15;;;10.23;;
71888;SDS011;59762;49.998;14.858;2024-03-08T05:50:37;25.48;;;11.25;;
71888;SDS011;59762;49.998;14.858;2024-03-08T05:53:04;19.17;;;12.25;;
71888;SDS011;59762;49.998;14.858;2024-03-08T05:55:34;24.92;;;12.48;;
71888;SDS011;59762;49.998;14.858;2024-03-08T05:58:00;43.78;;;11.32;;
71888;SDS011;59762;49.998;14.858;2024-03-08T06:00:26;38.47;;;16.10;;
71888;SDS011;59762;49.998;14.858;2024-03-08T06:02:52;26.75;;;12.95;;
71888;SDS011;59762;49.998;14.858;2024-03-08T06:05:17;35.40;;;13.75;;
71888;SDS011;59762;49.998;14.858;2024-03-08T06:07:43;30.48;;;12.40;;
71888;SDS011;59762;49.998;14.858;2024-03-08T06:10:09;28.13;;;14.27;;
71888;SDS011;59762;49.998;14.858;2024-03-08T06:12:38;21.42;;;11.02;;
71888;SDS011;59762;49.998;14.858;2024-03-08T06:15:07;29.05;;;13.10;;
71888;SDS011;59762;49.998;14.858;2024-03-08T06:17:34;25.52;;;12.93;;
71888;SDS011;59762;49.998;14.858;2024-03-08T06:19:59;26.00;;;11.60;;
71888;SDS011;59762;49.998;14.858;2024-03-08T06:22:25;22.63;;;11.35;;
71888;SDS011;59762;49.998;14.858;2024-03-08T06:24:51;27.00;;;12.80;;
71888;SDS011;59762;49.998;14.858;2024-03-08T06:27:16;35.45;;;15.40;;
71888;SDS011;59762;49.998;14.858;2024-03-08T06:29:42;29.10;;;11.18;;
71888;SDS011;59762;49.998;14.858;2024-03-08T06:32:08;24.05;;;10.95;;
71888;SDS011;59762;49.998;14.858;2024-03-08T06:34:33;29.60;;;13.80;;
71888;SDS011;59762;49.998;14.858;2024-03-08T06:37:02;21.55;;;11.38;;
71888;SDS011;59762;49.998;14.858;2024-03-08T06:39:27;30.05;;;13.15;;
71888;SDS011;59762;49.998;14.858;2024-03-08T06:41:57;30.35;;;12.50;;
71888;SDS011;59762;49.998;14.858;2024-03-08T06:44:22;37.72;;;14.98;;
71888;SDS011;59762;49.998;14.858;2024-03-08T06:46:48;20.45;;;11.93;;
71888;SDS011;59762;49.998;14.858;2024-03-08T06:49:13;29.63;;;13.57;;
71888;SDS011;59762;49.998;14.858;2024-03-08T06:51:41;25.90;;;11.90;;
71888;SDS011;59762;49.998;14.858;2024-03-08T06:54:06;33.13;;;14.02;;
71888;SDS011;59762;49.998;14.858;2024-03-08T06:56:34;31.02;;;14.00;;
71888;SDS011;59762;49.998;14.858;2024-03-08T06:58:59;25.65;;;11.63;;
71888;SDS011;59762;49.998;14.858;2024-03-08T07:01:25;34.70;;;15.15;;
71888;SDS011;59762;49.998;14.858;2024-03-08T07:03:51;36.53;;;13.93;;
71888;SDS011;59762;49.998;14.858;2024-03-08T07:06:18;22.70;;;12.43;;
71888;SDS011;59762;49.998;14.858;2024-03-08T07:08:44;26.58;;;12.35;;
71888;SDS011;59762;49.998;14.858;2024-03-08T07:11:11;29.50;;;13.13;;
71888;SDS011;59762;49.998;14.858;2024-03-08T07:13:37;20.05;;;10.43;;
71888;SDS011;59762;49.998;14.858;2024-03-08T07:16:04;33.63;;;13.18;;
71888;SDS011;59762;49.998;14.858;2024-03-08T07:18:30;25.40;;;11.85;;
71888;SDS011;59762;49.998;14.858;2024-03-08T07:20:56;23.60;;;10.82;;
71888;SDS011;59762;49.998;14.858;2024-03-08T07:23:22;21.33;;;12.32;;
71888;SDS011;59762;49.998;14.858;2024-03-08T07:26:06;22.77;;;10.25;;
71888;SDS011;59762;49.998;14.858;2024-03-08T07:28:32;23.95;;;10.45;;
71888;SDS011;59762;49.998;14.858;2024-03-08T07:30:58;20.88;;;10.30;;
71888;SDS011;59762;49.998;14.858;2024-03-08T07:33:41;27.42;;;11.63;;
71888;SDS011;59762;49.998;14.858;2024-03-08T07:36:07;30.50;;;11.43;;
71888;SDS011;59762;49.998;14.858;2024-03-08T07:38:33;19.95;;;8.55;;
71888;SDS011;59762;49.998;14.858;2024-03-08T07:40:59;21.17;;;8.98;;
71888;SDS011;59762;49.998;14.858;2024-03-08T07:43:25;20.65;;;9.32;;
71888;SDS011;59762;49.998;14.858;2024-03-08T07:45:51;16.23;;;6.88;;
71888;SDS011;59762;49.998;14.858;2024-03-08T07:48:18;18.58;;;7.93;;
71888;SDS011;59762;49.998;14.858;2024-03-08T07:50:43;16.42;;;7.88;;
71888;SDS011;59762;49.998;14.858;2024-03-08T07:53:09;19.08;;;8.98;;
71888;SDS011;59762;49.998;14.858;2024-03-08T07:55:35;26.48;;;8.30;;
71888;SDS011;59762;49.998;14.858;2024-03-08T07:58:01;15.40;;;7.93;;
71888;SDS011;59762;49.998;14.858;2024-03-08T08:00:28;12.65;;;7.35;;
71888;SDS011;59762;49.998;14.858;2024-03-08T08:02:55;18.48;;;8.98;;
71888;SDS011;59762;49.998;14.858;2024-03-08T08:05:21;17.23;;;9.32;;
71888;SDS011;59762;49.998;14.858;2024-03-08T08:07:46;19.17;;;8.70;;
71888;SDS011;59762;49.998;14.858;2024-03-08T08:10:12;21.92;;;8.90;;
71888;SDS011;59762;49.998;14.858;2024-03-08T08:12:47;19.20;;;8.25;;
71888;SDS011;59762;49.998;14.858;2024-03-08T08:15:13;15.95;;;7.30;;
71888;SDS011;59762;49.998;14.858;2024-03-08T08:17:43;23.95;;;9.63;;
71888;SDS011;59762;49.998;14.858;2024-03-08T08:20:09;22.58;;;9.27;;
71888;SDS011;59762;49.998;14.858;2024-03-08T08:22:37;18.80;;;8.73;;
71888;SDS011;59762;49.998;14.858;2024-03-08T08:25:04;20.05;;;7.70;;
71888;SDS011;59762;49.998;14.858;2024-03-08T08:27:29;18.48;;;9.00;;
71888;SDS011;59762;49.998;14.858;2024-03-08T08:29:55;26.65;;;9.25;;
71888;SDS011;59762;49.998;14.858;2024-03-08T08:32:21;21.75;;;9.02;;
71888;SDS011;59762;49.998;14.858;2024-03-08T08:34:47;24.52;;;10.20;;
71888;SDS011;59762;49.998;14.858;2024-03-08T08:37:13;20.02;;;8.40;;
71888;SDS011;59762;49.998;14.858;2024-03-08T08:39:38;24.70;;;9.65;;
71888;SDS011;59762;49.998;14.858;2024-03-08T08:42:04;10.40;;;7.10;;
71888;SDS011;59762;49.998;14.858;2024-03-08T08:44:30;20.92;;;7.55;;
71888;SDS011;59762;49.998;14.858;2024-03-08T08:46:56;16.77;;;7.60;;
71888;SDS011;59762;49.998;14.858;2024-03-08T08:49:22;23.70;;;8.85;;
71888;SDS011;59762;49.998;14.858;2024-03-08T08:51:52;15.32;;;8.20;;
71888;SDS011;59762;49.998;14.858;2024-03-08T08:54:18;16.83;;;7.63;;
71888;SDS011;59762;49.998;14.858;2024-03-08T08:56:43;14.00;;;7.82;;
71888;SDS011;59762;49.998;14.858;2024-03-08T08:59:09;25.83;;;11.07;;
71888;SDS011;59762;49.998;14.858;2024-03-08T09:01:39;17.88;;;9.65;;
71888;SDS011;59762;49.998;14.858;2024-03-08T09:04:04;19.40;;;8.20;;
71888;SDS011;59762;49.998;14.858;2024-03-08T09:06:30;23.80;;;9.48;;
71888;SDS011;59762;49.998;14.858;2024-03-08T09:08:56;17.00;;;8.80;;
71888;SDS011;59762;49.998;14.858;2024-03-08T09:11:21;16.13;;;7.50;;
71888;SDS011;59762;49.998;14.858;2024-03-08T09:13:47;17.88;;;6.40;;
71888;SDS011;59762;49.998;14.858;2024-03-08T09:16:14;19.35;;;8.20;;
71888;SDS011;59762;49.998;14.858;2024-03-08T09:18:40;21.05;;;8.73;;
71888;SDS011;59762;49.998;14.858;2024-03-08T09:21:06;19.30;;;8.68;;
71888;SDS011;59762;49.998;14.858;2024-03-08T09:23:38;21.17;;;9.90;;
71888;SDS011;59762;49.998;14.858;2024-03-08T09:26:03;21.08;;;8.43;;
71888;SDS011;59762;49.998;14.858;2024-03-08T09:28:29;15.32;;;7.20;;
71888;SDS011;59762;49.998;14.858;2024-03-08T09:30:55;18.13;;;8.73;;
71888;SDS011;59762;49.998;14.858;2024-03-08T09:33:20;15.35;;;8.00;;
71888;SDS011;59762;49.998;14.858;2024-03-08T09:35:47;25.08;;;10.15;;
71888;SDS011;59762;49.998;14.858;2024-03-08T09:38:16;22.95;;;9.60;;
71888;SDS011;59762;49.998;14.858;2024-03-08T09:40:42;19.70;;;9.45;;
71888;SDS011;59762;49.998;14.858;2024-03-08T09:43:08;14.35;;;7.68;;
71888;SDS011;59762;49.998;14.858;2024-03-08T09:45:36;23.55;;;8.65;;
71888;SDS011;59762;49.998;14.858;2024-03-08T09:48:02;15.10;;;8.02;;
71888;SDS011;59762;49.998;14.858;2024-03-08T09:50:27;27.48;;;9.55;;
71888;SDS011;59762;49.998;14.858;2024-03-08T09:52:54;15.32;;;8.88;;
71888;SDS011;59762;49.998;14.858;2024-03-08T09:55:22;20.98;;;8.90;;
71888;SDS011;59762;49.998;14.858;2024-03-08T09:57:48;18.42;;;8.20;;
71888;SDS011;59762;49.998;14.858;2024-03-08T10:00:34;15.35;;;8.30;;
71888;SDS011;59762;49.998;14.858;2024-03-08T10:03:02;20.75;;;9.75;;
71888;SDS011;59762;49.998;14.858;2024-03-08T10:05:28;18.58;;;8.27;;
71888;SDS011;59762;49.998;14.858;2024-03-08T10:07:54;20.13;;;8.57;;
71888;SDS011;59762;49.998;14.858;2024-03-08T10:10:19;12.55;;;7.03;;
71888;SDS011;59762;49.998;14.858;2024-03-08T10:12:46;18.40;;;8.82;;
71888;SDS011;59762;49.998;14.858;2024-03-08T10:15:11;22.75;;;9.40;;
71888;SDS011;59762;49.998;14.858;2024-03-08T10:17:37;15.25;;;8.52;;
71888;SDS011;59762;49.998;14.858;2024-03-08T10:20:14;21.52;;;8.77;;
71888;SDS011;59762;49.998;14.858;2024-03-08T10:22:40;19.50;;;8.00;;
71888;SDS011;59762;49.998;14.858;2024-03-08T10:25:09;17.92;;;9.43;;
71888;SDS011;59762;49.998;14.858;2024-03-08T10:27:36;16.75;;;8.73;;
71888;SDS011;59762;49.998;14.858;2024-03-08T10:30:01;20.88;;;8.55;;
71888;SDS011;59762;49.998;14.858;2024-03-08T10:32:27;22.20;;;7.57;;
71888;SDS011;59762;49.998;14.858;2024-03-08T10:34:53;19.70;;;7.50;;
71888;SDS011;59762;49.998;14.858;2024-03-08T10:37:21;24.60;;;9.80;;
71888;SDS011;59762;49.998;14.858;2024-03-08T10:39:51;20.15;;;9.30;;
71888;SDS011;59762;49.998;14.858;2024-03-08T10:42:19;21.25;;;7.88;;
71888;SDS011;59762;49.998;14.858;2024-03-08T10:44:51;23.90;;;7.90;;
71888;SDS011;59762;49.998;14.858;2024-03-08T10:47:26;17.95;;;7.78;;
71888;SDS011;59762;49.998;14.858;2024-03-08T10:49:55;12.25;;;5.75;;
71888;SDS011;59762;49.998;14.858;2024-03-08T10:52:22;17.92;;;7.68;;
71888;SDS011;59762;49.998;14.858;2024-03-08T10:54:48;15.32;;;8.80;;
71888;SDS011;59762;49.998;14.858;2024-03-08T10:57:17;13.48;;;6.82;;
71888;SDS011;59762;49.998;14.858;2024-03-08T10:59:42;16.90;;;7.80;;
71888;SDS011;59762;49.998;14.858;2024-03-08T11:02:11;17.40;;;9.13;;
71888;SDS011;59762;49.998;14.858;2024-03-08T11:04:37;18.10;;;7.95;;
71888;SDS011;59762;49.998;14.858;2024-03-08T11:07:03;20.23;;;8.60;;
71888;SDS011;59762;49.998;14.858;2024-03-08T11:09:36;14.38;;;7.72;;
71888;SDS011;59762;49.998;14.858;2024-03-08T11:14:47;11.82;;;6.70;;
71888;SDS011;59762;49.998;14.858;2024-03-08T11:17:15;18.38;;;7.85;;
71888;SDS011;59762;49.998;14.858;2024-03-08T11:19:49;13.73;;;6.43;;
71888;SDS011;59762;49.998;14.858;2024-03-08T11:22:20;18.02;;;7.10;;
71888;SDS011;59762;49.998;14.858;2024-03-08T11:24:48;18.70;;;7.57;;
71888;SDS011;59762;49.998;14.858;2024-03-08T11:27:14;16.92;;;7.10;;
71888;SDS011;59762;49.998;14.858;2024-03-08T11:29:40;13.43;;;5.03;;
71888;SDS011;59762;49.998;14.858;2024-03-08T11:32:12;9.73;;;5.63;;
71888;SDS011;59762;49.998;14.858;2024-03-08T11:34:40;12.63;;;6.25;;
71888;SDS011;59762;49.998;14.858;2024-03-08T11:37:14;16.95;;;7.28;;
71888;SDS011;59762;49.998;14.858;2024-03-08T11:39:50;18.45;;;7.22;;
71888;SDS011;59762;49.998;14.858;2024-03-08T11:42:16;13.25;;;6.82;;
71888;SDS011;59762;49.998;14.858;2024-03-08T11:44:43;13.85;;;7.15;;
71888;SDS011;59762;49.998;14.858;2024-03-08T11:47:12;15.52;;;7.35;;
71888;SDS011;59762;49.998;14.858;2024-03-08T11:49:39;15.50;;;7.32;;
71888;SDS011;59762;49.998;14.858;2024-03-08T11:52:12;14.40;;;7.43;;
71888;SDS011;59762;49.998;14.858;2024-03-08T11:54:38;11.35;;;5.90;;
71888;SDS011;59762;49.998;14.858;2024-03-08T11:57:04;14.07;;;6.88;;
71888;SDS011;59762;49.998;14.858;2024-03-08T11:59:30;14.77;;;5.93;;
71888;SDS011;59762;49.998;14.858;2024-03-08T12:04:24;14.10;;;5.95;;
71888;SDS011;59762;49.998;14.858;2024-03-08T12:06:50;12.43;;;5.82;;
71888;SDS011;59762;49.998;14.858;2024-03-08T12:09:16;13.18;;;6.13;;
71888;SDS011;59762;49.998;14.858;2024-03-08T12:11:42;14.43;;;7.65;;
71888;SDS011;59762;49.998;14.858;2024-03-08T12:14:09;14.73;;;6.35;;
71888;SDS011;59762;49.998;14.858;2024-03-08T12:16:38;13.80;;;7.07;;
71888;SDS011;59762;49.998;14.858;2024-03-08T12:19:04;14.20;;;6.05;;
71888;SDS011;59762;49.998;14.858;2024-03-08T12:21:31;12.73;;;5.53;;
71888;SDS011;59762;49.998;14.858;2024-03-08T12:24:04;6.90;;;3.70;;
71888;SDS011;59762;49.998;14.858;2024-03-08T12:26:30;9.90;;;4.20;;
71888;SDS011;59762;49.998;14.858;2024-03-08T12:29:14;12.23;;;4.85;;
71888;SDS011;59762;49.998;14.858;2024-03-08T12:31:39;8.90;;;4.55;;
71888;SDS011;59762;49.998;14.858;2024-03-08T12:34:07;4.75;;;2.97;;
71888;SDS011;59762;49.998;14.858;2024-03-08T12:36:35;8.57;;;4.05;;
71888;SDS011;59762;49.998;14.858;2024-03-08T12:39:04;13.55;;;5.07;;
71888;SDS011;59762;49.998;14.858;2024-03-08T12:41:31;3.60;;;2.35;;
71888;SDS011;59762;49.998;14.858;2024-03-08T12:43:58;8.57;;;4.03;;
71888;SDS011;59762;49.998;14.858;2024-03-08T12:46:25;9.02;;;4.63;;
71888;SDS011;59762;49.998;14.858;2024-03-08T12:48:52;9.82;;;4.35;;
71888;SDS011;59762;49.998;14.858;2024-03-08T12:51:20;26.30;;;9.95;;
71888;SDS011;59762;49.998;14.858;2024-03-08T12:53:47;11.75;;;4.75;;
71888;SDS011;59762;49.998;14.858;2024-03-08T12:56:29;25.35;;;9.13;;
71888;SDS011;59762;49.998;14.858;2024-03-08T12:58:55;13.20;;;5.50;;
71888;SDS011;59762;49.998;14.858;2024-03-08T13:01:23;8.45;;;3.50;;
71888;SDS011;59762;49.998;14.858;2024-03-08T13:03:49;7.47;;;4.50;;
71888;SDS011;59762;49.998;14.858;2024-03-08T13:06:18;10.05;;;4.93;;
71888;SDS011;59762;49.998;14.858;2024-03-08T13:08:47;13.00;;;4.10;;
71888;SDS011;59762;49.998;14.858;2024-03-08T13:11:13;8.35;;;3.67;;
71888;SDS011;59762;49.998;14.858;2024-03-08T13:13:42;5.85;;;3.47;;
71888;SDS011;59762;49.998;14.858;2024-03-08T13:16:08;9.45;;;4.15;;
71888;SDS011;59762;49.998;14.858;2024-03-08T13:18:34;11.70;;;5.40;;
71888;SDS011;59762;49.998;14.858;2024-03-08T13:21:00;7.20;;;3.83;;
71888;SDS011;59762;49.998;14.858;2024-03-08T13:23:30;14.13;;;5.78;;
71888;SDS011;59762;49.998;14.858;2024-03-08T13:25:58;7.53;;;3.85;;
71888;SDS011;59762;49.998;14.858;2024-03-08T13:28:24;11.57;;;5.97;;
71888;SDS011;59762;49.998;14.858;2024-03-08T13:30:56;6.72;;;3.70;;
71888;SDS011;59762;49.998;14.858;2024-03-08T13:33:23;17.58;;;5.60;;
71888;SDS011;59762;49.998;14.858;2024-03-08T13:35:49;14.55;;;6.85;;
71888;SDS011;59762;49.998;14.858;2024-03-08T13:38:16;16.73;;;6.25;;
71888;SDS011;59762;49.998;14.858;2024-03-08T13:40:43;12.45;;;5.50;;
71888;SDS011;59762;49.998;14.858;2024-03-08T13:43:09;7.40;;;3.80;;
71888;SDS011;59762;49.998;14.858;2024-03-08T13:45:35;9.95;;;4.05;;
71888;SDS011;59762;49.998;14.858;2024-03-08T13:48:03;7.03;;;3.33;;
71888;SDS011;59762;49.998;14.858;2024-03-08T13:50:30;7.13;;;3.70;;
71888;SDS011;59762;49.998;14.858;2024-03-08T13:52:55;8.73;;;4.20;;
71888;SDS011;59762;49.998;14.858;2024-03-08T13:55:21;7.38;;;3.50;;
71888;SDS011;59762;49.998;14.858;2024-03-08T13:57:47;8.32;;;4.70;;
71888;SDS011;59762;49.998;14.858;2024-03-08T14:00:13;8.18;;;5.18;;
71888;SDS011;59762;49.998;14.858;2024-03-08T14:02:40;8.65;;;4.07;;
71888;SDS011;59762;49.998;14.858;2024-03-08T14:05:06;12.45;;;4.43;;
71888;SDS011;59762;49.998;14.858;2024-03-08T14:07:34;7.50;;;4.03;;
71888;SDS011;59762;49.998;14.858;2024-03-08T14:09:59;29.73;;;8.15;;
71888;SDS011;59762;49.998;14.858;2024-03-08T14:12:25;13.60;;;5.55;;
71888;SDS011;59762;49.998;14.858;2024-03-08T14:14:52;9.80;;;4.32;;
71888;SDS011;59762;49.998;14.858;2024-03-08T14:17:17;9.70;;;5.35;;
71888;SDS011;59762;49.998;14.858;2024-03-08T14:19:43;11.07;;;5.95;;
71888;SDS011;59762;49.998;14.858;2024-03-08T14:22:09;27.83;;;10.57;;